Time;durP1;ratioP1;P1;durP2;ratioP2;P2;SDS_P1;SDS_P2;PMS_P1;PMS_P2;Temp;Humidity;BMP_temperature;BMP_pressure;BME280_temperature;BME280_humidity;BME280_pressure;Samples;Min_cycle;Max_cycle;Signal;HPM_P1;HPM_P2
2023/08/12 00:00:59;;;;;;;8.63;2.97;;;;;;;;;;4997860;28;20457;-47
2023/08/12 00:03:24;;;;;;;5.07;2.67;;;;;;;;;;4994033;28;20041;-50
2023/08/12 00:05:50;;;;;;;7.10;2.67;;;;;;;;;;5022765;28;20038;-50
2023/08/12 00:08:16;;;;;;;5.93;2.83;;;;;;;;;;4990091;28;20070;-45
2023/08/12 00:10:41;;;;;;;4.35;2.42;;;;;;;;;;4981256;28;20043;-49
2023/08/12 00:13:06;;;;;;;3.38;2.58;;;;;;;;;;4996134;28;20053;-46
2023/08/12 00:15:32;;;;;;;3.95;2.60;;;;;;;;;;4995220;28;20512;-49
2023/08/12 00:17:57;;;;;;;3.28;2.83;;;;;;;;;;4998023;28;20428;-47
2023/08/12 00:20:23;;;;;;;5.75;3.28;;;;;;;;;;4996414;28;20035;-49
2023/08/12 00:22:48;;;;;;;6.60;2.90;;;;;;;;;;5029466;28;20036;-49
2023/08/12 00:25:15;;;;;;;7.43;2.88;;;;;;;;;;4997879;28;20113;-49
2023/08/12 00:27:40;;;;;;;5.40;3.05;;;;;;;;;;5026738;28;20033;-46
2023/08/12 00:30:06;;;;;;;5.40;2.90;;;;;;;;;;4997346;28;20038;-46
2023/08/12 00:32:32;;;;;;;9.95;3.67;;;;;;;;;;4996061;28;20105;-48
2023/08/12 00:34:57;;;;;;;4.07;2.70;;;;;;;;;;4996575;28;20559;-45
2023/08/12 00:37:23;;;;;;;8.15;3.10;;;;;;;;;;4999135;28;20050;-45
2023/08/12 00:39:48;;;;;;;3.40;2.95;;;;;;;;;;4998298;28;20040;-45
2023/08/12 00:42:14;;;;;;;4.03;3.08;;;;;;;;;;4979868;28;20425;-44
2023/08/12 00:44:39;;;;;;;4.80;3.25;;;;;;;;;;4993624;28;20026;-46
2023/08/12 00:47:05;;;;;;;8.07;3.25;;;;;;;;;;4998645;28;20045;-51
2023/08/12 00:49:32;;;;;;;5.28;3.40;;;;;;;;;;4994856;28;20571;-46
2023/08/12 00:51:58;;;;;;;6.13;3.50;;;;;;;;;;4994310;28;20038;-51
2023/08/12 00:54:26;;;;;;;5.13;3.53;;;;;;;;;;4997691;28;20030;-45
2023/08/12 00:56:52;;;;;;;9.65;3.33;;;;;;;;;;4997075;28;20049;-50
2023/08/12 00:59:20;;;;;;;7.18;3.33;;;;;;;;;;4997050;28;20496;-47
2023/08/12 01:01:46;;;;;;;8.18;3.38;;;;;;;;;;4994700;28;20035;-50
2023/08/12 01:04:13;;;;;;;8.35;3.25;;;;;;;;;;4994998;28;20030;-46
2023/08/12 01:06:38;;;;;;;8.35;3.60;;;;;;;;;;4997515;28;20576;-46
2023/08/12 01:09:05;;;;;;;7.13;3.45;;;;;;;;;;4997994;28;20076;-46
2023/08/12 01:11:46;;;;;;;6.13;2.95;;;;;;;;;;4995570;28;20512;-48
2023/08/12 01:14:14;;;;;;;6.07;3.05;;;;;;;;;;4995201;28;20038;-47
2023/08/12 01:16:44;;;;;;;6.28;3.10;;;;;;;;;;4997506;28;20049;-45
2023/08/12 01:19:16;;;;;;;10.60;3.20;;;;;;;;;;4996229;28;20026;-49
2023/08/12 01:21:44;;;;;;;8.45;2.88;;;;;;;;;;4995853;28;20061;-45
2023/08/12 01:24:09;;;;;;;7.40;3.08;;;;;;;;;;4993145;28;20041;-45
2023/08/12 01:26:35;;;;;;;6.32;2.95;;;;;;;;;;4988724;28;20389;-46
2023/08/12 01:29:00;;;;;;;5.70;3.33;;;;;;;;;;4997447;28;20026;-45
2023/08/12 01:31:38;;;;;;;6.95;3.40;;;;;;;;;;4999550;28;20051;-45
2023/08/12 01:34:16;;;;;;;5.28;2.97;;;;;;;;;;4995399;28;20036;-45
2023/08/12 01:36:46;;;;;;;6.57;3.08;;;;;;;;;;4991415;28;20058;-44
2023/08/12 01:39:12;;;;;;;8.40;3.30;;;;;;;;;;4971770;28;20496;-45
2023/08/12 01:41:38;;;;;;;5.05;3.00;;;;;;;;;;4987906;28;20035;-47
2023/08/12 01:44:04;;;;;;;6.43;3.20;;;;;;;;;;4975961;28;20030;-51
2023/08/12 01:46:31;;;;;;;6.68;3.33;;;;;;;;;;4979000;28;20035;-45
2023/08/12 01:48:56;;;;;;;4.70;3.00;;;;;;;;;;4996058;28;20034;-45
2023/08/12 01:51:21;;;;;;;4.57;3.10;;;;;;;;;;4993970;28;20053;-47
2023/08/12 01:53:47;;;;;;;7.97;3.35;;;;;;;;;;4996046;28;20026;-47
2023/08/12 01:56:12;;;;;;;4.47;2.92;;;;;;;;;;4994685;28;20061;-49
2023/08/12 01:58:38;;;;;;;3.78;3.00;;;;;;;;;;4997313;28;20105;-47
2023/08/12 02:01:03;;;;;;;8.30;3.85;;;;;;;;;;4976475;28;20412;-48
2023/08/12 02:03:29;;;;;;;6.63;3.05;;;;;;;;;;4991538;28;20037;-49
2023/08/12 02:05:54;;;;;;;3.67;2.92;;;;;;;;;;5002007;28;20037;-48
2023/08/12 02:08:19;;;;;;;3.78;3.20;;;;;;;;;;5008614;28;20070;-49
2023/08/12 02:10:45;;;;;;;5.32;3.42;;;;;;;;;;4994428;28;20046;-48
2023/08/12 02:13:10;;;;;;;7.60;3.45;;;;;;;;;;4991561;28;20042;-45
2023/08/12 02:15:36;;;;;;;5.40;3.60;;;;;;;;;;4995083;28;20185;-45
2023/08/12 02:18:01;;;;;;;6.95;3.58;;;;;;;;;;4996162;28;20037;-46
2023/08/12 02:20:27;;;;;;;6.95;3.55;;;;;;;;;;5006968;28;20038;-46
2023/08/12 02:22:52;;;;;;;4.25;3.20;;;;;;;;;;4994622;28;20030;-47
2023/08/12 02:25:18;;;;;;;5.70;3.40;;;;;;;;;;4996210;28;20035;-45
2023/08/12 02:27:43;;;;;;;5.95;3.13;;;;;;;;;;4995305;28;20026;-45
2023/08/12 02:30:10;;;;;;;8.98;3.30;;;;;;;;;;5025795;28;20034;-48
2023/08/12 02:32:35;;;;;;;7.07;3.60;;;;;;;;;;5011893;28;20191;-45
2023/08/12 02:35:01;;;;;;;5.65;3.38;;;;;;;;;;4977588;28;20074;-45
2023/08/12 02:37:26;;;;;;;5.40;3.65;;;;;;;;;;4994065;28;20065;-45
2023/08/12 02:39:52;;;;;;;4.30;3.67;;;;;;;;;;4994768;28;20030;-44
2023/08/12 02:42:17;;;;;;;5.95;3.47;;;;;;;;;;4994844;28;20033;-48
2023/08/12 02:44:42;;;;;;;10.23;4.30;;;;;;;;;;4978634;28;20161;-49
2023/08/12 02:47:08;;;;;;;7.68;4.30;;;;;;;;;;4991494;28;20097;-48
2023/08/12 02:49:33;;;;;;;5.68;4.32;;;;;;;;;;4989857;28;20034;-50
2023/08/12 02:51:59;;;;;;;5.40;3.70;;;;;;;;;;5000155;28;20042;-47
2023/08/12 02:54:24;;;;;;;7.45;3.80;;;;;;;;;;4993736;28;20105;-47
2023/08/12 02:56:50;;;;;;;5.82;3.63;;;;;;;;;;4995796;28;20081;-54
2023/08/12 02:59:16;;;;;;;7.63;3.90;;;;;;;;;;4995611;28;20053;-51
2023/08/12 03:01:42;;;;;;;7.88;3.72;;;;;;;;;;4993812;28;20508;-49
2023/08/12 03:04:07;;;;;;;5.60;3.53;;;;;;;;;;4995009;28;20068;-47
2023/08/12 03:06:33;;;;;;;6.70;3.70;;;;;;;;;;4974923;28;20094;-48
2023/08/12 03:08:58;;;;;;;6.75;3.67;;;;;;;;;;4996694;28;20030;-46
2023/08/12 03:11:24;;;;;;;7.88;4.00;;;;;;;;;;4994285;28;20026;-50
2023/08/12 03:13:49;;;;;;;3.95;3.55;;;;;;;;;;4983188;28;20034;-45
2023/08/12 03:16:15;;;;;;;7.13;4.18;;;;;;;;;;4995800;28;20030;-50
2023/08/12 03:18:41;;;;;;;8.68;3.60;;;;;;;;;;4996367;28;20037;-48
2023/08/12 03:21:10;;;;;;;8.48;4.00;;;;;;;;;;4994573;28;20065;-48
2023/08/12 03:23:36;;;;;;;5.88;3.80;;;;;;;;;;4994974;28;20034;-45
2023/08/12 03:26:02;;;;;;;6.18;3.75;;;;;;;;;;4994304;28;20042;-47
2023/08/12 03:28:27;;;;;;;5.53;3.83;;;;;;;;;;4975041;28;20511;-50
2023/08/12 03:30:53;;;;;;;6.72;3.42;;;;;;;;;;4995357;28;20524;-46
2023/08/12 03:33:19;;;;;;;4.93;3.60;;;;;;;;;;4994193;28;20034;-45
2023/08/12 03:35:48;;;;;;;5.75;4.00;;;;;;;;;;4971341;28;20051;-44
2023/08/12 03:38:14;;;;;;;6.72;3.67;;;;;;;;;;5006140;28;20066;-48
2023/08/12 03:40:40;;;;;;;11.05;4.03;;;;;;;;;;4982292;28;20038;-48
2023/08/12 03:43:06;;;;;;;6.57;3.70;;;;;;;;;;4996050;28;20026;-46
2023/08/12 03:45:31;;;;;;;4.85;3.60;;;;;;;;;;4993283;28;20073;-49
2023/08/12 03:47:56;;;;;;;7.40;3.95;;;;;;;;;;4994167;28;20353;-45
2023/08/12 03:50:22;;;;;;;6.32;3.88;;;;;;;;;;4991389;28;20516;-48
2023/08/12 03:52:47;;;;;;;9.20;4.10;;;;;;;;;;5007478;28;20501;-46
2023/08/12 03:55:13;;;;;;;8.90;3.88;;;;;;;;;;4993408;28;20088;-44
2023/08/12 03:57:38;;;;;;;4.60;3.83;;;;;;;;;;4995761;28;20023;-47
2023/08/12 04:00:06;;;;;;;4.80;3.60;;;;;;;;;;4994280;28;20599;-47
2023/08/12 04:02:32;;;;;;;4.13;3.72;;;;;;;;;;4998474;28;20044;-48
2023/08/12 04:04:57;;;;;;;9.32;3.88;;;;;;;;;;4992760;28;20493;-48
2023/08/12 04:07:23;;;;;;;8.65;4.22;;;;;;;;;;4998135;28;20381;-46
2023/08/12 04:09:48;;;;;;;4.45;3.70;;;;;;;;;;4997047;28;20031;-47
2023/08/12 04:12:13;;;;;;;4.15;3.58;;;;;;;;;;4997472;28;20034;-43
2023/08/12 04:14:40;;;;;;;6.57;4.10;;;;;;;;;;4996071;28;20022;-48
2023/08/12 04:17:06;;;;;;;4.75;3.95;;;;;;;;;;4999274;28;20022;-49
2023/08/12 04:19:31;;;;;;;10.25;5.00;;;;;;;;;;4981867;28;20030;-47
2023/08/12 04:21:57;;;;;;;11.88;3.55;;;;;;;;;;5010480;28;20407;-45
2023/08/12 04:24:22;;;;;;;8.45;3.85;;;;;;;;;;4998479;28;20040;-49
2023/08/12 04:26:48;;;;;;;12.38;3.80;;;;;;;;;;4994381;28;20077;-47
2023/08/12 04:29:13;;;;;;;7.10;3.55;;;;;;;;;;4997445;28;20071;-46
2023/08/12 04:31:40;;;;;;;6.60;3.72;;;;;;;;;;4997119;28;20093;-48
2023/08/12 04:34:05;;;;;;;7.38;3.83;;;;;;;;;;4996174;28;20041;-46
2023/08/12 04:36:30;;;;;;;5.40;4.15;;;;;;;;;;4996172;28;20047;-46
2023/08/12 04:38:56;;;;;;;11.25;3.95;;;;;;;;;;4996807;28;20034;-45
2023/08/12 04:41:23;;;;;;;7.00;3.88;;;;;;;;;;4997183;28;20049;-43
2023/08/12 04:43:49;;;;;;;6.05;3.90;;;;;;;;;;4997208;28;20053;-44
2023/08/12 04:46:14;;;;;;;7.22;4.57;;;;;;;;;;4994621;28;20026;-45
2023/08/12 04:48:40;;;;;;;7.20;4.18;;;;;;;;;;4997265;28;20018;-44
2023/08/12 04:51:06;;;;;;;4.80;3.97;;;;;;;;;;4996784;28;20523;-47
2023/08/12 04:53:32;;;;;;;7.75;3.40;;;;;;;;;;4994299;28;20511;-49
2023/08/12 04:55:58;;;;;;;13.30;4.18;;;;;;;;;;4995701;28;20042;-44
2023/08/12 04:58:23;;;;;;;6.22;3.70;;;;;;;;;;4998412;28;20456;-46
2023/08/12 05:00:51;;;;;;;6.70;3.88;;;;;;;;;;4995783;28;20408;-47
2023/08/12 05:03:17;;;;;;;5.03;3.35;;;;;;;;;;4998104;28;20118;-45
2023/08/12 05:05:42;;;;;;;5.82;4.00;;;;;;;;;;4994646;28;20069;-44
2023/08/12 05:08:08;;;;;;;6.28;4.05;;;;;;;;;;4994517;28;20065;-47
2023/08/12 05:10:33;;;;;;;5.28;3.67;;;;;;;;;;4995672;28;20041;-45
2023/08/12 05:12:59;;;;;;;7.00;3.90;;;;;;;;;;4993267;28;20034;-46
2023/08/12 05:15:24;;;;;;;6.63;3.65;;;;;;;;;;4993403;28;20043;-47
2023/08/12 05:17:49;;;;;;;9.68;5.10;;;;;;;;;;4998123;28;20400;-45
2023/08/12 05:20:15;;;;;;;4.93;4.03;;;;;;;;;;4995668;28;20040;-46
2023/08/12 05:22:40;;;;;;;5.22;4.03;;;;;;;;;;4996217;28;20117;-48
2023/08/12 05:25:06;;;;;;;10.43;3.95;;;;;;;;;;4995104;28;20397;-44
2023/08/12 05:27:31;;;;;;;5.53;3.60;;;;;;;;;;4994578;28;20480;-44
2023/08/12 05:29:57;;;;;;;5.18;3.70;;;;;;;;;;4999154;28;20154;-44
2023/08/12 05:32:22;;;;;;;7.40;3.90;;;;;;;;;;5014644;28;20033;-44
2023/08/12 05:34:51;;;;;;;4.28;3.72;;;;;;;;;;5003888;28;20062;-47
2023/08/12 05:37:17;;;;;;;6.80;3.88;;;;;;;;;;4979115;28;20026;-45
2023/08/12 05:39:42;;;;;;;7.97;4.47;;;;;;;;;;5007583;28;20026;-45
2023/08/12 05:42:08;;;;;;;9.75;4.40;;;;;;;;;;4996629;28;20464;-47
2023/08/12 05:44:33;;;;;;;7.82;4.13;;;;;;;;;;4979915;28;20661;-45
2023/08/12 05:46:58;;;;;;;5.13;3.95;;;;;;;;;;5000512;28;20047;-45
2023/08/12 05:49:24;;;;;;;7.22;4.30;;;;;;;;;;4996261;28;20030;-48
2023/08/12 05:51:49;;;;;;;8.55;4.10;;;;;;;;;;4990650;28;20041;-47
2023/08/12 05:54:14;;;;;;;7.07;4.00;;;;;;;;;;4978302;28;20456;-47
2023/08/12 05:56:40;;;;;;;7.07;4.20;;;;;;;;;;5007827;28;20401;-45
2023/08/12 05:59:05;;;;;;;10.95;4.15;;;;;;;;;;4980081;28;20029;-46
2023/08/12 06:01:31;;;;;;;7.25;4.55;;;;;;;;;;4990794;28;20064;-47
2023/08/12 06:03:56;;;;;;;9.93;3.95;;;;;;;;;;4995892;28;20373;-45
2023/08/12 06:06:22;;;;;;;6.40;3.83;;;;;;;;;;4994433;28;20034;-47
2023/08/12 06:08:48;;;;;;;7.25;3.90;;;;;;;;;;4995384;28;20034;-47
2023/08/12 06:11:13;;;;;;;14.13;3.92;;;;;;;;;;4991987;28;20465;-45
2023/08/12 06:13:39;;;;;;;8.02;3.90;;;;;;;;;;4977452;28;20022;-49
2023/08/12 06:16:04;;;;;;;6.68;4.00;;;;;;;;;;4980333;28;20066;-44
2023/08/12 06:18:30;;;;;;;5.75;3.85;;;;;;;;;;4979463;28;20111;-47
2023/08/12 06:20:55;;;;;;;7.68;3.92;;;;;;;;;;5000316;28;20038;-46
2023/08/12 06:23:20;;;;;;;5.15;4.00;;;;;;;;;;4994760;28;20061;-44
2023/08/12 06:25:46;;;;;;;7.18;4.25;;;;;;;;;;4994514;28;20424;-47
2023/08/12 06:28:11;;;;;;;10.63;4.05;;;;;;;;;;4978478;28;20038;-49
2023/08/12 06:30:37;;;;;;;6.65;3.75;;;;;;;;;;4991852;28;20519;-44
2023/08/12 06:33:02;;;;;;;10.68;4.18;;;;;;;;;;4988438;28;20027;-50
2023/08/12 06:35:28;;;;;;;6.32;3.80;;;;;;;;;;4993063;28;20045;-45
2023/08/12 06:37:53;;;;;;;10.25;4.13;;;;;;;;;;4991338;28;20022;-44
2023/08/12 06:40:19;;;;;;;5.57;3.45;;;;;;;;;;4987852;28;20042;-47
2023/08/12 06:42:44;;;;;;;6.93;3.83;;;;;;;;;;4993081;28;20538;-45
2023/08/12 06:45:10;;;;;;;7.38;3.70;;;;;;;;;;4994420;28;20031;-45
2023/08/12 06:47:35;;;;;;;10.48;3.80;;;;;;;;;;4988327;28;20026;-47
2023/08/12 06:50:01;;;;;;;6.45;4.18;;;;;;;;;;4979097;28;20112;-48
2023/08/12 06:52:27;;;;;;;8.02;4.00;;;;;;;;;;4994536;28;20033;-44
2023/08/12 06:54:52;;;;;;;7.05;3.72;;;;;;;;;;4994838;28;20081;-47
2023/08/12 06:57:18;;;;;;;13.27;4.03;;;;;;;;;;4994023;28;20053;-46
2023/08/12 06:59:43;;;;;;;7.47;3.90;;;;;;;;;;4994525;28;20488;-48
2023/08/12 07:02:08;;;;;;;9.00;4.38;;;;;;;;;;4995578;28;20022;-45
2023/08/12 07:04:34;;;;;;;11.55;4.30;;;;;;;;;;4993219;28;20038;-47
2023/08/12 07:06:59;;;;;;;8.32;4.55;;;;;;;;;;4992562;28;20112;-47
2023/08/12 07:09:25;;;;;;;15.13;4.78;;;;;;;;;;4995466;28;20038;-45
2023/08/12 07:11:50;;;;;;;8.77;5.18;;;;;;;;;;4993135;28;20035;-44
2023/08/12 07:14:16;;;;;;;11.77;4.38;;;;;;;;;;4994824;28;20463;-47
2023/08/12 07:16:41;;;;;;;8.63;4.47;;;;;;;;;;4994552;28;20088;-44
2023/08/12 07:19:07;;;;;;;6.05;3.92;;;;;;;;;;4995614;28;20064;-47
2023/08/12 07:21:32;;;;;;;8.13;4.10;;;;;;;;;;4993652;28;20038;-48
2023/08/12 07:23:57;;;;;;;7.03;4.10;;;;;;;;;;4977564;28;20026;-48
2023/08/12 07:26:23;;;;;;;10.75;4.40;;;;;;;;;;4993141;28;20117;-48
2023/08/12 07:28:48;;;;;;;9.32;4.10;;;;;;;;;;4984827;28;20076;-48
2023/08/12 07:31:14;;;;;;;10.93;4.05;;;;;;;;;;4995207;28;20493;-46
2023/08/12 07:33:39;;;;;;;6.28;4.18;;;;;;;;;;4996593;28;20022;-48
2023/08/12 07:36:05;;;;;;;5.75;4.05;;;;;;;;;;4992212;28;20047;-47
2023/08/12 07:38:30;;;;;;;8.70;4.60;;;;;;;;;;5000137;28;20034;-47
2023/08/12 07:40:56;;;;;;;9.27;5.00;;;;;;;;;;4998173;28;20050;-46
2023/08/12 07:43:21;;;;;;;7.95;4.70;;;;;;;;;;4964301;28;20106;-46
2023/08/12 07:45:53;;;;;;;8.02;4.13;;;;;;;;;;4997485;28;20105;-46
2023/08/12 07:48:22;;;;;;;10.60;4.53;;;;;;;;;;4998133;28;20030;-48
2023/08/12 07:50:55;;;;;;;6.68;4.20;;;;;;;;;;5009178;28;20053;-50
2023/08/12 07:53:20;;;;;;;7.30;4.18;;;;;;;;;;4997414;28;20025;-45
2023/08/12 07:55:46;;;;;;;16.00;5.63;;;;;;;;;;4996628;28;20038;-45
2023/08/12 07:58:11;;;;;;;8.88;4.25;;;;;;;;;;5012117;28;20476;-44
2023/08/12 08:00:36;;;;;;;10.63;4.20;;;;;;;;;;4997170;28;20050;-44
2023/08/12 08:03:02;;;;;;;5.45;3.95;;;;;;;;;;4998439;28;20030;-45
2023/08/12 08:05:27;;;;;;;7.75;4.63;;;;;;;;;;4999064;28;20045;-44
2023/08/12 08:07:53;;;;;;;8.10;4.28;;;;;;;;;;4981134;28;20488;-49
2023/08/12 08:10:18;;;;;;;6.50;4.57;;;;;;;;;;4995598;28;20034;-47
2023/08/12 08:12:43;;;;;;;10.48;5.00;;;;;;;;;;5016749;28;20080;-48
2023/08/12 08:15:09;;;;;;;9.68;5.97;;;;;;;;;;4994143;28;20133;-46
2023/08/12 08:17:35;;;;;;;9.45;5.07;;;;;;;;;;4998078;28;20052;-46
2023/08/12 08:20:00;;;;;;;7.65;4.03;;;;;;;;;;4997222;28;20050;-46
2023/08/12 08:22:26;;;;;;;6.85;3.85;;;;;;;;;;4994398;28;20026;-48
2023/08/12 08:24:51;;;;;;;9.45;4.35;;;;;;;;;;4988530;28;20125;-46
2023/08/12 08:27:16;;;;;;;8.65;3.55;;;;;;;;;;5028885;28;20114;-47
2023/08/12 08:29:42;;;;;;;8.07;4.22;;;;;;;;;;4993417;28;20039;-43
2023/08/12 08:32:08;;;;;;;5.32;3.53;;;;;;;;;;4998896;28;20022;-45
2023/08/12 08:34:34;;;;;;;9.57;3.90;;;;;;;;;;4996122;28;20030;-49
2023/08/12 08:36:59;;;;;;;6.63;3.65;;;;;;;;;;4984237;28;20093;-46
2023/08/12 08:39:24;;;;;;;9.20;4.18;;;;;;;;;;4989103;28;20412;-45
2023/08/12 08:41:53;;;;;;;7.85;3.90;;;;;;;;;;4980227;28;20038;-49
2023/08/12 08:44:21;;;;;;;7.72;3.50;;;;;;;;;;4986525;28;20423;-47
2023/08/12 08:46:51;;;;;;;7.95;3.13;;;;;;;;;;4997863;28;20042;-48
2023/08/12 08:49:18;;;;;;;5.10;3.80;;;;;;;;;;4981606;28;20101;-46
2023/08/12 08:51:45;;;;;;;6.45;3.30;;;;;;;;;;4996803;28;20042;-45
2023/08/12 08:54:12;;;;;;;11.32;4.28;;;;;;;;;;4997289;28;20030;-47
2023/08/12 08:56:38;;;;;;;6.95;3.85;;;;;;;;;;4995734;28;20093;-47
2023/08/12 08:59:04;;;;;;;4.18;3.35;;;;;;;;;;4977234;28;20026;-45
2023/08/12 09:01:30;;;;;;;7.57;3.40;;;;;;;;;;4994651;28;20041;-45
2023/08/12 09:03:57;;;;;;;7.05;3.42;;;;;;;;;;4996062;28;20022;-48
2023/08/12 09:06:25;;;;;;;8.15;3.75;;;;;;;;;;4994317;28;20074;-45
2023/08/12 09:08:52;;;;;;;7.32;3.30;;;;;;;;;;4997399;28;20030;-45
2023/08/12 09:11:18;;;;;;;10.18;3.95;;;;;;;;;;4997369;28;20048;-45
2023/08/12 09:13:44;;;;;;;6.70;3.60;;;;;;;;;;4996282;28;20109;-47
2023/08/12 09:16:10;;;;;;;9.18;3.85;;;;;;;;;;4995136;28;20050;-47
2023/08/12 09:18:37;;;;;;;6.25;3.83;;;;;;;;;;4996948;28;20038;-45
2023/08/12 09:21:03;;;;;;;6.72;4.05;;;;;;;;;;4979508;28;20058;-45
2023/08/12 09:23:34;;;;;;;6.03;4.10;;;;;;;;;;5027673;28;20030;-49
2023/08/12 09:26:01;;;;;;;6.10;4.28;;;;;;;;;;4996038;28;20504;-46
2023/08/12 09:28:26;;;;;;;14.13;3.92;;;;;;;;;;4997121;28;20032;-46
2023/08/12 09:30:52;;;;;;;5.78;3.67;;;;;;;;;;4977716;28;20109;-46
2023/08/12 09:33:24;;;;;;;5.85;3.80;;;;;;;;;;4997345;28;20022;-47
2023/08/12 09:35:49;;;;;;;5.10;3.80;;;;;;;;;;4993960;28;20046;-46
2023/08/12 09:38:15;;;;;;;10.88;3.70;;;;;;;;;;4995182;28;20428;-47
2023/08/12 09:40:41;;;;;;;6.15;3.17;;;;;;;;;;4996986;28;20370;-46
2023/08/12 09:43:06;;;;;;;9.25;2.92;;;;;;;;;;4995765;28;20105;-48
2023/08/12 09:45:33;;;;;;;10.82;3.40;;;;;;;;;;4996997;28;20035;-49
2023/08/12 09:47:59;;;;;;;6.50;2.83;;;;;;;;;;4993704;28;20023;-49
2023/08/12 09:50:26;;;;;;;5.53;3.03;;;;;;;;;;4990419;28;20031;-48
2023/08/12 09:52:52;;;;;;;8.27;3.20;;;;;;;;;;4991969;28;20069;-50
2023/08/12 09:55:19;;;;;;;6.43;3.35;;;;;;;;;;4994495;28;20113;-46
2023/08/12 09:57:48;;;;;;;5.47;3.05;;;;;;;;;;4992078;28;20030;-49
2023/08/12 10:00:18;;;;;;;8.23;3.25;;;;;;;;;;4995705;28;20034;-47
2023/08/12 10:02:45;;;;;;;5.60;3.05;;;;;;;;;;4996343;28;20081;-45
2023/08/12 10:05:12;;;;;;;4.18;2.97;;;;;;;;;;4993205;28;20093;-45
2023/08/12 10:07:40;;;;;;;10.98;3.30;;;;;;;;;;4995022;28;20046;-47
2023/08/12 10:10:07;;;;;;;7.43;2.85;;;;;;;;;;4994858;28;20034;-46
2023/08/12 10:12:34;;;;;;;6.72;3.50;;;;;;;;;;4996833;28;20076;-46
2023/08/12 10:15:00;;;;;;;6.50;3.70;;;;;;;;;;4995939;28;20558;-46
2023/08/12 10:17:26;;;;;;;3.13;2.85;;;;;;;;;;4987170;28;20033;-45
2023/08/12 10:19:57;;;;;;;3.60;2.80;;;;;;;;;;4991566;28;20037;-46
2023/08/12 10:22:25;;;;;;;5.93;3.65;;;;;;;;;;4996401;28;20057;-49
2023/08/12 10:24:51;;;;;;;7.03;3.10;;;;;;;;;;4993022;28;20030;-46
2023/08/12 10:27:18;;;;;;;3.00;2.65;;;;;;;;;;4992810;28;20097;-46
2023/08/12 10:29:44;;;;;;;3.63;2.97;;;;;;;;;;4994013;28;20030;-45
2023/08/12 10:32:09;;;;;;;3.80;3.40;;;;;;;;;;4994105;28;20057;-46
2023/08/12 10:34:35;;;;;;;3.83;3.10;;;;;;;;;;4993743;28;20033;-49
2023/08/12 10:37:02;;;;;;;5.13;2.83;;;;;;;;;;4994688;28;20041;-47
2023/08/12 10:39:31;;;;;;;3.85;2.88;;;;;;;;;;4991604;28;20094;-47
2023/08/12 10:41:57;;;;;;;3.85;3.00;;;;;;;;;;5026300;28;20045;-47
2023/08/12 10:44:27;;;;;;;4.53;2.70;;;;;;;;;;4994438;28;20026;-45
2023/08/12 10:46:53;;;;;;;5.30;3.00;;;;;;;;;;4993340;28;20110;-46
2023/08/12 10:49:21;;;;;;;7.10;2.78;;;;;;;;;;4986137;28;20486;-47
2023/08/12 10:51:54;;;;;;;4.85;3.05;;;;;;;;;;4995934;28;20054;-46
2023/08/12 10:54:29;;;;;;;4.90;3.28;;;;;;;;;;4996654;28;20030;-46
2023/08/12 10:57:03;;;;;;;4.55;3.00;;;;;;;;;;4995286;28;20069;-47
2023/08/12 10:59:44;;;;;;;5.22;2.85;;;;;;;;;;4991587;28;20388;-46
2023/08/12 11:02:29;;;;;;;5.13;3.20;;;;;;;;;;4983305;28;20050;-48
2023/08/12 11:05:01;;;;;;;4.97;3.20;;;;;;;;;;4991008;28;20464;-47
2023/08/12 11:07:33;;;;;;;4.85;2.92;;;;;;;;;;4991660;28;20030;-48
2023/08/12 11:10:15;;;;;;;4.60;3.00;;;;;;;;;;4996218;28;20030;-47
2023/08/12 11:12:47;;;;;;;4.93;2.83;;;;;;;;;;5000322;28;20030;-48
2023/08/12 11:15:12;;;;;;;4.63;2.78;;;;;;;;;;4997969;28;20037;-51
2023/08/12 11:17:41;;;;;;;3.83;2.72;;;;;;;;;;4995334;28;20030;-46
2023/08/12 11:20:09;;;;;;;3.35;2.70;;;;;;;;;;5002647;28;20072;-48
2023/08/12 11:22:40;;;;;;;5.38;2.92;;;;;;;;;;4982611;28;20036;-47
2023/08/12 11:25:08;;;;;;;3.67;2.80;;;;;;;;;;4978945;28;20035;-46
2023/08/12 11:27:42;;;;;;;2.95;2.42;;;;;;;;;;4979585;28;20034;-49
2023/08/12 11:30:10;;;;;;;3.08;2.45;;;;;;;;;;4987064;28;20045;-46
2023/08/12 11:32:37;;;;;;;2.58;2.38;;;;;;;;;;5001354;28;20030;-50
2023/08/12 11:35:05;;;;;;;2.50;2.30;;;;;;;;;;4998376;28;20577;-44
2023/08/12 11:37:31;;;;;;;3.80;2.45;;;;;;;;;;4982581;28;20060;-47
2023/08/12 11:39:57;;;;;;;2.95;2.45;;;;;;;;;;4998592;28;20508;-47
2023/08/12 11:42:22;;;;;;;5.90;2.80;;;;;;;;;;4999787;28;20443;-47
2023/08/12 11:44:48;;;;;;;6.03;2.63;;;;;;;;;;4996530;28;20026;-47
2023/08/12 11:47:13;;;;;;;4.15;2.28;;;;;;;;;;4998626;28;20077;-47
2023/08/12 11:49:39;;;;;;;2.90;2.70;;;;;;;;;;4995716;28;20026;-50
2023/08/12 11:52:04;;;;;;;3.50;2.70;;;;;;;;;;5009843;28;20026;-45
2023/08/12 11:54:30;;;;;;;3.20;2.75;;;;;;;;;;4992361;28;20084;-48
2023/08/12 11:56:57;;;;;;;5.07;2.53;;;;;;;;;;4993375;28;20081;-47
2023/08/12 11:59:23;;;;;;;2.63;2.40;;;;;;;;;;4998808;28;20050;-44
2023/08/12 12:01:51;;;;;;;4.18;2.70;;;;;;;;;;4996967;28;20046;-46
2023/08/12 12:04:20;;;;;;;2.40;2.20;;;;;;;;;;5009316;28;20132;-46
2023/08/12 12:06:46;;;;;;;2.47;2.00;;;;;;;;;;4996338;28;20042;-46
2023/08/12 12:09:13;;;;;;;2.63;2.42;;;;;;;;;;4997969;28;20056;-46
2023/08/12 12:11:40;;;;;;;5.20;2.53;;;;;;;;;;4999065;28;20035;-46
2023/08/12 12:14:09;;;;;;;7.53;2.58;;;;;;;;;;4999129;28;20022;-45
2023/08/12 12:16:45;;;;;;;4.38;2.50;;;;;;;;;;4999250;28;20038;-47
2023/08/12 12:19:15;;;;;;;6.22;2.70;;;;;;;;;;4996503;28;20057;-47
2023/08/12 12:21:41;;;;;;;3.53;2.22;;;;;;;;;;5023375;28;20039;-46
2023/08/12 12:24:08;;;;;;;2.33;2.13;;;;;;;;;;5028869;28;20080;-48
2023/08/12 12:26:35;;;;;;;3.25;2.53;;;;;;;;;;4997937;28;20118;-46
2023/08/12 12:29:01;;;;;;;2.50;2.30;;;;;;;;;;4997709;28;20476;-47
2023/08/12 12:31:27;;;;;;;2.88;2.30;;;;;;;;;;4997666;28;20038;-47
2023/08/12 12:33:52;;;;;;;4.07;2.40;;;;;;;;;;4995471;28;20030;-45
2023/08/12 12:36:17;;;;;;;8.82;2.38;;;;;;;;;;4977432;28;20058;-47
2023/08/12 12:38:43;;;;;;;3.63;2.35;;;;;;;;;;4981521;28;20026;-46
2023/08/12 12:41:08;;;;;;;5.40;2.30;;;;;;;;;;4998207;28;20543;-46
2023/08/12 12:43:34;;;;;;;3.47;2.05;;;;;;;;;;4991218;28;20054;-45
2023/08/12 12:45:59;;;;;;;2.40;2.05;;;;;;;;;;4997077;28;20567;-47
2023/08/12 12:48:25;;;;;;;5.40;2.10;;;;;;;;;;4997417;28;20803;-45
2023/08/12 12:50:50;;;;;;;3.00;2.22;;;;;;;;;;4996857;28;20101;-45
2023/08/12 12:53:16;;;;;;;3.25;2.05;;;;;;;;;;4996566;28;20026;-47
2023/08/12 12:55:42;;;;;;;5.78;2.03;;;;;;;;;;4978349;28;20412;-45
2023/08/12 12:58:09;;;;;;;3.20;1.92;;;;;;;;;;4997586;28;20037;-46
2023/08/12 13:00:34;;;;;;;15.13;2.53;;;;;;;;;;5000266;28;20430;-48
2023/08/12 13:03:00;;;;;;;9.48;2.10;;;;;;;;;;4996537;28;20023;-50
2023/08/12 13:05:25;;;;;;;3.70;2.00;;;;;;;;;;5002903;28;20112;-49
2023/08/12 13:07:50;;;;;;;5.03;2.30;;;;;;;;;;5017190;28;20480;-50
2023/08/12 13:10:16;;;;;;;4.10;2.03;;;;;;;;;;4996231;28;20184;-49
2023/08/12 13:12:41;;;;;;;3.35;2.00;;;;;;;;;;4995856;28;20041;-48
2023/08/12 13:15:07;;;;;;;3.45;1.92;;;;;;;;;;5000152;28;20053;-48
2023/08/12 13:17:32;;;;;;;4.72;2.47;;;;;;;;;;5008131;28;20034;-47
2023/08/12 13:19:58;;;;;;;13.10;2.25;;;;;;;;;;4995431;28;20038;-50
2023/08/12 13:22:23;;;;;;;3.25;2.25;;;;;;;;;;4996022;28;20054;-48
2023/08/12 13:24:49;;;;;;;2.47;1.83;;;;;;;;;;4979032;28;20046;-49
2023/08/12 13:27:14;;;;;;;2.38;1.95;;;;;;;;;;4979701;28;20030;-46
2023/08/12 13:29:40;;;;;;;2.97;2.20;;;;;;;;;;4993401;28;20037;-49
2023/08/12 13:32:05;;;;;;;2.22;1.80;;;;;;;;;;4974561;28;20034;-46
2023/08/12 13:34:31;;;;;;;1.95;1.80;;;;;;;;;;4989941;28;20041;-49
2023/08/12 13:36:56;;;;;;;4.20;2.10;;;;;;;;;;4980123;28;20043;-47
2023/08/12 13:39:22;;;;;;;2.67;1.95;;;;;;;;;;4988536;28;20548;-50
2023/08/12 13:41:47;;;;;;;2.40;2.20;;;;;;;;;;4979569;28;20049;-48
2023/08/12 13:44:13;;;;;;;5.90;2.00;;;;;;;;;;4991734;28;20100;-50
2023/08/12 13:46:38;;;;;;;3.30;2.00;;;;;;;;;;4994673;28;20053;-50
2023/08/12 13:49:03;;;;;;;6.75;2.15;;;;;;;;;;4995880;28;20022;-51
2023/08/12 13:51:30;;;;;;;2.88;2.55;;;;;;;;;;4972593;28;20051;-48
2023/08/12 13:53:55;;;;;;;2.78;2.20;;;;;;;;;;4995544;28;20576;-45
2023/08/12 13:56:21;;;;;;;7.07;2.72;;;;;;;;;;4996306;28;20065;-48
2023/08/12 13:58:46;;;;;;;4.28;2.10;;;;;;;;;;4951731;28;20041;-47
2023/08/12 14:01:12;;;;;;;2.35;2.15;;;;;;;;;;4987959;28;20114;-45
2023/08/12 14:03:38;;;;;;;4.15;1.70;;;;;;;;;;4993998;28;20060;-49
2023/08/12 14:06:03;;;;;;;3.08;2.03;;;;;;;;;;4984401;28;20047;-51
2023/08/12 14:08:28;;;;;;;4.00;2.40;;;;;;;;;;5007571;28;20026;-51
2023/08/12 14:10:54;;;;;;;2.95;2.35;;;;;;;;;;4985468;28;20046;-49
2023/08/12 14:13:19;;;;;;;3.30;2.10;;;;;;;;;;5028652;28;20026;-46
2023/08/12 14:15:45;;;;;;;3.45;1.90;;;;;;;;;;4993129;28;20093;-50
2023/08/12 14:18:10;;;;;;;4.60;2.50;;;;;;;;;;4994751;28;20041;-49
2023/08/12 14:20:35;;;;;;;4.22;2.17;;;;;;;;;;4975723;28;20030;-47
2023/08/12 14:23:01;;;;;;;2.08;1.90;;;;;;;;;;4959835;28;20026;-49
2023/08/12 14:25:26;;;;;;;4.57;2.13;;;;;;;;;;4982837;28;20519;-50
2023/08/12 14:27:52;;;;;;;5.80;2.28;;;;;;;;;;4977675;28;20547;-49
2023/08/12 14:30:19;;;;;;;7.15;2.47;;;;;;;;;;4995481;28;20068;-48
2023/08/12 14:32:44;;;;;;;4.75;2.17;;;;;;;;;;4995364;28;20555;-50
2023/08/12 14:35:09;;;;;;;2.10;1.90;;;;;;;;;;4993633;28;20120;-50